Flight Track Log - Related Links

Times and Time Zones

All times are in EDT time to prevent confusion due to time zone crossing. See the EJA951 flight status page for this flight to view local times or setup timezone preferences in your user account.

Time Position Orientation Groundspeed Altitude Reporting Facility
EDT Latitude Longitude Course Direction KTS MPH feet Rate Location/Type
Thu 02:50:32 PM 40.4464 -88.9075 124° Southeast 178 205 3,000  Level Chicago Center
Thu 02:51:34 PM 40.4056 -88.8267 124° Southeast 266 306 6,500 3,339 Climbing Chicago Center
Thu 02:52:36 PM 40.3556 -88.7408 127° Southeast 288 331 9,900 2,274 Climbing Chicago Center
Thu 02:53:38 PM 40.3008 -88.6422 126° Southeast 328 377 11,200 1,887 Climbing Chicago Center
Thu 02:54:40 PM 40.2239 -88.5078 127° Southeast 380 437 13,800 1,839 Climbing Chicago Center
Thu 02:55:42 PM 40.1519 -88.3814 127° Southeast 421 484 15,000 576 Climbing Chicago Center
Thu 02:56:45 PM 40.0783 -88.2492 126° Southeast 445 512 15,000  Level Chicago Center
Thu 02:57:47 PM 39.9989 -88.1144 128° Southeast 450 518 15,000  Level Chicago Center
Thu 02:58:49 PM 39.9267 -87.9933 128° Southeast 432 497 15,000  Level Chicago Center
Thu 02:59:51 PM 39.8569 -87.8714 127° Southeast 424 488 15,000  Level Chicago Center
Thu 03:00:53 PM 39.7861 -87.7492 127° Southeast 423 487 15,000 -242 Level Chicago Center
Thu 03:01:55 PM 39.6978 -87.5994 127° Southeast 433 498 14,500 -774 Descending Chicago Center
Thu 03:02:57 PM 39.6261 -87.4789 128° Southeast 427 491 13,400 -968 Descending Chicago Center
Thu 03:03:59 PM 39.5567 -87.3628 128° Southeast 410 472 12,500 -1,161 Descending Chicago Center
Thu 03:05:01 PM 39.4994 -87.2639 127° Southeast 349 402 11,000 -1,697 Descending Chicago Center
Thu 03:06:24 PM 39.4272 -87.1333 126° Southeast 319 367 8,400 -2,234 Descending Indianapolis Center
Thu 03:07:26 PM 39.3814 -87.0492 125° Southeast 303 349 5,600 -2,371 Descending Indianapolis Center
Thu 03:08:28 PM 39.3378 -86.9678 125° Southeast 289 333 3,500 -1,258 Descending Indianapolis Center
Thu 03:09:30 PM 39.2931 -86.8858 125° Southeast 245 282 3,000 -290 Descending Indianapolis Center
Thu 03:10:32 PM 39.2653 -86.8125 116° Southeast 239 275 2,900 -145 Descending Indianapolis Center
Thu 03:11:34 PM 39.2506 -86.7353 104° East 229 264 2,700 -242 Descending Indianapolis Center
Thu 03:12:36 PM 39.2358 -86.6644 105° East 215 247 2,400 -339 Descending Indianapolis Center
Thu 03:13:38 PM 39.2056 -86.6264 136° Southeast 189 217 2,000 -435 Descending Indianapolis Center
Thu 03:14:40 PM 39.1631 -86.6186 172° South 165 190 1,500 -484 Descending Indianapolis Center

Login

Don't have an account? Register now (free) for customized features, flight alerts, and more!